Nyk Apollo — HOQM — position and weather

sailwx.info

Track history (hours):
 
Tides and Currents Weather Stations Pressure Air Temp Water Temp Dewpoint Dewpoint Depression Visibility Wind Speed Wind Dir Waves Ship Positions

Nyk Apollo

Last reported at 2017-Nov-17 05:37 UTC. Time now 2017-Nov-18 06:18 UTC.
Position N 21°40' E 119°34'.

Length 299.9 m; beam 40 m.

Type: Cargo ship. MMSI: 355981000.

Date/timePositionNaut miles runAvg speedWind from/ knotsBaromVisibWave heightAir tempDewpointWater temp
2017-Nov-17 05:37N 21°40' E 119°34'318.3
2017-Nov-17 05:27N 21°42' E 119°36'818.7
2017-Nov-17 05:01N 21°48' E 119°42'1218.3
2017-Nov-17 04:20N 21°58' E 119°50'618.5
2017-Nov-17 04:00N 22°04' E 119°53'918.1
2017-Nov-17 03:31N 22°11' E 119°58'918.5
2017-Nov-17 03:00N 22°20' E 120°02'918.7
2017-Nov-17 02:30N 22°28' E 120°07'816.2
2017-Nov-17 02:00N 22°33' E 120°14'510.0
2017-Nov-17 01:29N 22°33' E 120°20'0 0.0
2017-Nov-16 13:43N 22°33' E 120°20'0 0.5
2017-Nov-16 13:30N 22°33' E 120°20'3 6.3
2017-Nov-16 13:00N 22°33' E 120°16'4 7.0
2017-Nov-16 12:30N 22°32' E 120°13'3 5.6
2017-Nov-16 12:00N 22°34' E 120°11'611.9
2017-Nov-16 11:30N 22°39' E 120°08'713.5
2017-Nov-16 11:00N 22°45' E 120°04'611.2
2017-Nov-16 10:30N 22°50' E 120°02'  
2017-Nov-12 11:44N 34°47' E 139°39'616.0
2017-Nov-12 11:24N 34°52' E 139°40'718.4
2017-Nov-12 11:00N 34°59' E 139°41'917.1
2017-Nov-12 10:30N 35°08' E 139°44'612.7
2017-Nov-12 10:00N 35°14' E 139°46'612.9
2017-Nov-12 09:30N 35°19' E 139°43'611.8
2017-Nov-12 09:00N 35°25' E 139°44'815.1
2017-Nov-12 08:30N 35°30' E 139°51'713.2
2017-Nov-12 08:00N 35°36' E 139°47'1 0.1
2017-Nov-11 22:46N 35°36' E 139°46'0 1.9
2017-Nov-11 22:30N 35°36' E 139°46'5 9.7
2017-Nov-11 22:00N 35°33' E 139°51'5 9.6
2017-Nov-11 21:30N 35°28' E 139°51'713.7
2017-Nov-11 21:00N 35°23' E 139°46'611.6
2017-Nov-11 20:30N 35°17' E 139°45'612.3
2017-Nov-11 20:00N 35°11' E 139°47'5 9.4
2017-Nov-11 19:30N 35°06' E 139°46'4 8.0
2017-Nov-11 19:00N 35°03' E 139°44'2 3.1
2017-Nov-11 18:30N 35°02' E 139°43'5 9.3
2017-Nov-11 18:00N 34°57' E 139°41'611.5
2017-Nov-11 17:30N 34°52' E 139°44'814.0
2017-Nov-11 16:57N 34°48' E 139°52'914.1
2017-Nov-11 16:19N 34°45' E 140°02'617.4
2017-Nov-11 15:59N 34°49' E 140°08'  
Track history (hours):
 
Tides and Currents Weather Stations Pressure Air Temp Water Temp Dewpoint Dewpoint Depression Visibility Wind Speed Wind Dir Waves Ship Positions

Nyk Apollo

Last reported at 2017-Nov-17 05:37 UTC. Time now 2017-Nov-18 06:18 UTC.
Position N 21°40' E 119°34'.

Length 299.9 m; beam 40 m.

Type: Cargo ship. MMSI: 355981000.

Date/timePositionNaut miles runAvg speedWind from/ knotsBaromVisibWave heightAir tempDewpointWater temp
2017-Nov-17 05:37N 21°40' E 119°34'318.3
2017-Nov-17 05:27N 21°42' E 119°36'818.7
2017-Nov-17 05:01N 21°48' E 119°42'1218.3
2017-Nov-17 04:20N 21°58' E 119°50'618.5
2017-Nov-17 04:00N 22°04' E 119°53'918.1
2017-Nov-17 03:31N 22°11' E 119°58'918.5
2017-Nov-17 03:00N 22°20' E 120°02'918.7
2017-Nov-17 02:30N 22°28' E 120°07'816.2
2017-Nov-17 02:00N 22°33' E 120°14'510.0
2017-Nov-17 01:29N 22°33' E 120°20'0 0.0
2017-Nov-16 13:43N 22°33' E 120°20'0 0.5
2017-Nov-16 13:30N 22°33' E 120°20'3 6.3
2017-Nov-16 13:00N 22°33' E 120°16'4 7.0
2017-Nov-16 12:30N 22°32' E 120°13'3 5.6
2017-Nov-16 12:00N 22°34' E 120°11'611.9
2017-Nov-16 11:30N 22°39' E 120°08'713.5
2017-Nov-16 11:00N 22°45' E 120°04'611.2
2017-Nov-16 10:30N 22°50' E 120°02'  
2017-Nov-12 11:44N 34°47' E 139°39'616.0
2017-Nov-12 11:24N 34°52' E 139°40'718.4
2017-Nov-12 11:00N 34°59' E 139°41'917.1
2017-Nov-12 10:30N 35°08' E 139°44'612.7
2017-Nov-12 10:00N 35°14' E 139°46'612.9
2017-Nov-12 09:30N 35°19' E 139°43'611.8
2017-Nov-12 09:00N 35°25' E 139°44'815.1
2017-Nov-12 08:30N 35°30' E 139°51'713.2
2017-Nov-12 08:00N 35°36' E 139°47'1 0.1
2017-Nov-11 22:46N 35°36' E 139°46'0 1.9
2017-Nov-11 22:30N 35°36' E 139°46'5 9.7
2017-Nov-11 22:00N 35°33' E 139°51'5 9.6
2017-Nov-11 21:30N 35°28' E 139°51'713.7
2017-Nov-11 21:00N 35°23' E 139°46'611.6
2017-Nov-11 20:30N 35°17' E 139°45'612.3
2017-Nov-11 20:00N 35°11' E 139°47'5 9.4
2017-Nov-11 19:30N 35°06' E 139°46'4 8.0
2017-Nov-11 19:00N 35°03' E 139°44'2 3.1
2017-Nov-11 18:30N 35°02' E 139°43'5 9.3
2017-Nov-11 18:00N 34°57' E 139°41'611.5
2017-Nov-11 17:30N 34°52' E 139°44'814.0
2017-Nov-11 16:57N 34°48' E 139°52'914.1
2017-Nov-11 16:19N 34°45' E 140°02'617.4
2017-Nov-11 15:59N 34°49' E 140°08'  

Dump ship's entire track history